createdAt,value
2022-08-31T00:02:22.558Z,93.07
2022-08-31T00:13:07.046Z,93.01
2022-08-31T00:23:46.061Z,93.03
2022-08-31T00:34:42.257Z,92.92
2022-08-31T00:45:32.063Z,93.10
2022-08-31T00:56:20.925Z,93.57
2022-08-31T01:07:10.574Z,93.88
2022-08-31T01:18:11.074Z,93.82
2022-08-31T01:29:31.478Z,93.76
2022-08-31T01:39:58.901Z,93.70
2022-08-31T01:50:43.145Z,94.16
2022-08-31T02:01:28.098Z,94.85
2022-08-31T02:12:06.386Z,95.50
2022-08-31T02:22:50.571Z,96.09
2022-08-31T02:33:33.064Z,96.37
2022-08-31T02:44:31.148Z,96.52
2022-08-31T02:55:22.048Z,96.62
2022-08-31T03:06:22.489Z,97.12
2022-08-31T03:16:59.907Z,97.18
2022-08-31T03:27:36.311Z,97.55
2022-08-31T03:38:10.576Z,97.85
2022-08-31T03:48:54.464Z,97.86
2022-08-31T04:00:09.267Z,97.80
2022-08-31T04:11:12.135Z,97.79
2022-08-31T04:21:56.116Z,97.95
2022-08-31T04:32:40.932Z,97.94
2022-08-31T04:43:46.096Z,97.76
2022-08-31T04:54:52.084Z,97.34
2022-08-31T05:05:49.266Z,96.92
2022-08-31T05:16:42.621Z,96.83
2022-08-31T05:27:25.979Z,96.29
2022-08-31T05:38:34.830Z,95.30
2022-08-31T05:49:06.466Z,94.36
2022-08-31T05:59:17.078Z,93.43
2022-08-31T06:09:23.856Z,91.97
2022-08-31T06:19:30.365Z,90.89
2022-08-31T06:30:03.680Z,87.99
2022-08-31T06:40:12.329Z,85.64
2022-08-31T06:50:40.592Z,83.31
2022-08-31T07:00:48.572Z,80.69
2022-08-31T07:11:04.260Z,78.43
2022-08-31T07:21:20.319Z,74.40
2022-08-31T07:31:48.614Z,70.54
2022-08-31T07:42:02.607Z,69.92
2022-08-31T07:54:03.756Z,67.97
2022-08-31T08:04:40.900Z,66.53
2022-08-31T08:15:07.746Z,64.24
2022-08-31T08:25:49.446Z,61.84
2022-08-31T08:35:59.464Z,59.05
2022-08-31T08:46:25.564Z,57.03
2022-08-31T08:56:42.260Z,56.38
2022-08-31T09:07:28.936Z,54.73
2022-08-31T09:17:59.676Z,53.92
2022-08-31T09:28:20.802Z,53.49
2022-08-31T09:38:40.385Z,53.99
2022-08-31T09:48:53.188Z,53.42
2022-08-31T09:59:09.309Z,51.30
2022-08-31T10:09:40.093Z,50.92
2022-08-31T10:19:56.007Z,48.76
2022-08-31T10:30:05.269Z,48.50
2022-08-31T10:40:11.116Z,47.08
2022-08-31T10:50:24.023Z,47.39
2022-08-31T11:00:44.691Z,45.90
2022-08-31T11:10:55.298Z,45.32
2022-08-31T11:21:35.539Z,43.68
2022-08-31T11:31:46.661Z,43.45
2022-08-31T11:41:51.277Z,44.30
2022-08-31T11:52:14.792Z,44.02
2022-08-31T12:02:24.258Z,43.90
2022-08-31T12:12:52.298Z,43.09
2022-08-31T12:23:34.161Z,43.32
2022-08-31T12:34:05.366Z,42.51
2022-08-31T12:44:14.266Z,42.91
2022-08-31T12:54:37.413Z,43.08
2022-08-31T13:04:46.883Z,43.06
2022-08-31T13:14:53.022Z,42.99
2022-08-31T13:25:33.426Z,42.33
2022-08-31T13:35:45.252Z,41.27
2022-08-31T13:46:01.444Z,40.36
2022-08-31T13:56:55.480Z,40.66
2022-08-31T14:07:03.333Z,40.24
2022-08-31T14:17:35.064Z,40.66
2022-08-31T14:27:43.313Z,40.24
2022-08-31T14:37:49.993Z,40.94
2022-08-31T14:47:53.478Z,41.97
2022-08-31T14:58:05.352Z,42.52
2022-08-31T15:08:09.677Z,43.79
2022-08-31T15:18:34.119Z,45.11
2022-08-31T15:28:42.414Z,46.73
2022-08-31T15:38:50.234Z,48.28
2022-08-31T15:48:56.534Z,49.17
2022-08-31T15:59:04.437Z,49.16
2022-08-31T16:20:17.592Z,49.15
2022-08-31T16:30:32.666Z,49.96
2022-08-31T16:40:49.068Z,50.43
2022-08-31T16:51:05.885Z,51.19
2022-08-31T17:01:39.728Z,52.03
2022-08-31T17:12:26.761Z,52.93
2022-08-31T17:22:46.666Z,53.77
2022-08-31T17:33:01.565Z,54.48
2022-08-31T17:43:26.700Z,55.24
2022-08-31T17:53:44.766Z,55.76
2022-08-31T18:03:51.336Z,56.14
2022-08-31T18:13:59.098Z,55.97
2022-08-31T18:24:08.237Z,55.08
2022-08-31T18:34:23.332Z,54.75
2022-08-31T18:44:51.533Z,54.70
2022-08-31T18:54:58.967Z,55.14
2022-08-31T19:05:08.908Z,55.49
2022-08-31T19:15:18.058Z,55.75
2022-08-31T19:25:27.366Z,56.04
2022-08-31T19:35:30.908Z,56.21
2022-08-31T19:45:42.920Z,56.32
2022-08-31T19:55:54.310Z,57.06
2022-08-31T20:06:16.893Z,57.68
2022-08-31T20:16:21.157Z,59.43
2022-08-31T20:26:36.325Z,60.50
2022-08-31T20:36:48.307Z,61.95
2022-08-31T20:47:27.424Z,63.18
2022-08-31T20:58:18.302Z,64.44
2022-08-31T21:08:59.433Z,64.23
2022-08-31T21:19:03.888Z,64.72
2022-08-31T21:29:26.400Z,65.17
2022-08-31T21:39:57.111Z,65.57
2022-08-31T21:50:04.360Z,66.20
2022-08-31T22:00:14.798Z,66.11
2022-08-31T22:10:23.168Z,66.84
2022-08-31T22:20:33.048Z,66.93
2022-08-31T22:30:40.401Z,67.40
2022-08-31T22:40:50.879Z,66.86
2022-08-31T22:50:57.523Z,66.66
2022-08-31T23:01:03.500Z,66.32
2022-08-31T23:11:15.235Z,66.58
2022-08-31T23:21:21.333Z,66.75
2022-08-31T23:31:28.527Z,67.25
2022-08-31T23:41:38.965Z,67.43
2022-08-31T23:51:54.001Z,68.23
